sensor_id;sensor_type;location;lat;lon;timestamp;temperature;humidity
40556;DHT22;26250;45.422;11.100;2023-06-14T07:36:01;24.10;80.00
40556;DHT22;26250;45.422;11.100;2023-06-14T07:38:28;24.10;79.40
40556;DHT22;26250;45.422;11.100;2023-06-14T07:40:55;24.10;79.10
40556;DHT22;26250;45.422;11.100;2023-06-14T07:43:22;24.00;79.00
40556;DHT22;26250;45.422;11.100;2023-06-14T07:45:49;23.90;79.00
40556;DHT22;26250;45.422;11.100;2023-06-14T07:48:32;24.00;78.90
40556;DHT22;26250;45.422;11.100;2023-06-14T07:50:59;24.10;78.80
40556;DHT22;26250;45.422;11.100;2023-06-14T07:53:28;24.10;77.90
40556;DHT22;26250;45.422;11.100;2023-06-14T07:55:55;24.10;77.70
40556;DHT22;26250;45.422;11.100;2023-06-14T07:58:23;24.10;78.20
40556;DHT22;26250;45.422;11.100;2023-06-14T08:00:50;24.10;78.90
40556;DHT22;26250;45.422;11.100;2023-06-14T08:03:17;24.10;78.80
40556;DHT22;26250;45.422;11.100;2023-06-14T08:05:45;24.00;78.70
40556;DHT22;26250;45.422;11.100;2023-06-14T08:08:13;24.10;78.90
40556;DHT22;26250;45.422;11.100;2023-06-14T08:10:40;24.00;77.20
40556;DHT22;26250;45.422;11.100;2023-06-14T08:13:07;24.00;77.80
40556;DHT22;26250;45.422;11.100;2023-06-14T08:15:36;24.10;77.30
40556;DHT22;26250;45.422;11.100;2023-06-14T08:18:03;24.10;76.90
40556;DHT22;26250;45.422;11.100;2023-06-14T08:20:30;24.10;76.80
40556;DHT22;26250;45.422;11.100;2023-06-14T08:22:58;24.00;77.10
40556;DHT22;26250;45.422;11.100;2023-06-14T08:25:25;24.10;78.10
40556;DHT22;26250;45.422;11.100;2023-06-14T08:27:52;24.10;76.90
40556;DHT22;26250;45.422;11.100;2023-06-14T08:30:19;24.10;76.40
40556;DHT22;26250;45.422;11.100;2023-06-14T08:32:46;24.20;77.10
40556;DHT22;26250;45.422;11.100;2023-06-14T08:35:19;24.20;77.00
40556;DHT22;26250;45.422;11.100;2023-06-14T08:37:46;24.20;75.90
40556;DHT22;26250;45.422;11.100;2023-06-14T08:40:23;24.30;76.00
40556;DHT22;26250;45.422;11.100;2023-06-14T08:42:52;24.20;76.90
40556;DHT22;26250;45.422;11.100;2023-06-14T08:45:20;24.30;76.30
40556;DHT22;26250;45.422;11.100;2023-06-14T08:47:52;24.30;75.30
40556;DHT22;26250;45.422;11.100;2023-06-14T08:50:26;24.30;75.60
40556;DHT22;26250;45.422;11.100;2023-06-14T08:52:57;24.30;76.30
40556;DHT22;26250;45.422;11.100;2023-06-14T08:55:28;24.30;75.40
40556;DHT22;26250;45.422;11.100;2023-06-14T08:57:58;24.40;75.80
40556;DHT22;26250;45.422;11.100;2023-06-14T09:00:26;24.40;75.30
40556;DHT22;26250;45.422;11.100;2023-06-14T09:02:55;24.40;75.50
40556;DHT22;26250;45.422;11.100;2023-06-14T09:05:26;24.40;75.80
40556;DHT22;26250;45.422;11.100;2023-06-14T09:07:54;24.30;75.70
40556;DHT22;26250;45.422;11.100;2023-06-14T09:10:31;24.30;76.10
40556;DHT22;26250;45.422;11.100;2023-06-14T09:13:03;24.30;75.70
40556;DHT22;26250;45.422;11.100;2023-06-14T09:15:31;24.40;75.60
40556;DHT22;26250;45.422;11.100;2023-06-14T09:18:01;24.50;75.60
40556;DHT22;26250;45.422;11.100;2023-06-14T09:20:30;24.50;75.40
40556;DHT22;26250;45.422;11.100;2023-06-14T09:22:58;24.50;74.60
40556;DHT22;26250;45.422;11.100;2023-06-14T09:25:25;24.50;75.40
40556;DHT22;26250;45.422;11.100;2023-06-14T09:28:08;24.50;74.80
40556;DHT22;26250;45.422;11.100;2023-06-14T09:30:37;24.50;74.70
40556;DHT22;26250;45.422;11.100;2023-06-14T09:33:04;24.50;74.60
40556;DHT22;26250;45.422;11.100;2023-06-14T09:35:35;24.50;75.30
40556;DHT22;26250;45.422;11.100;2023-06-14T09:38:03;24.50;74.70
40556;DHT22;26250;45.422;11.100;2023-06-14T09:40:33;24.50;74.80
40556;DHT22;26250;45.422;11.100;2023-06-14T09:43:01;24.60;74.80
40556;DHT22;26250;45.422;11.100;2023-06-14T09:45:30;24.70;74.50
40556;DHT22;26250;45.422;11.100;2023-06-14T09:47:58;24.70;74.10
40556;DHT22;26250;45.422;11.100;2023-06-14T09:50:28;24.70;74.30
40556;DHT22;26250;45.422;11.100;2023-06-14T09:52:57;24.80;74.30
40556;DHT22;26250;45.422;11.100;2023-06-14T09:55:31;24.90;74.40
40556;DHT22;26250;45.422;11.100;2023-06-14T09:58:05;24.80;74.00
40556;DHT22;26250;45.422;11.100;2023-06-14T10:00:35;24.90;74.30
40556;DHT22;26250;45.422;11.100;2023-06-14T10:03:13;24.90;73.70
40556;DHT22;26250;45.422;11.100;2023-06-14T10:05:45;24.90;74.10
40556;DHT22;26250;45.422;11.100;2023-06-14T10:08:18;24.90;74.30
40556;DHT22;26250;45.422;11.100;2023-06-14T10:10:46;24.90;74.20
40556;DHT22;26250;45.422;11.100;2023-06-14T10:13:14;24.90;73.00
40556;DHT22;26250;45.422;11.100;2023-06-14T10:15:55;24.90;71.60
40556;DHT22;26250;45.422;11.100;2023-06-14T10:18:35;25.00;72.40
40556;DHT22;26250;45.422;11.100;2023-06-14T10:21:16;25.00;72.40
40556;DHT22;26250;45.422;11.100;2023-06-14T10:23:46;25.10;71.90
40556;DHT22;26250;45.422;11.100;2023-06-14T10:26:23;25.20;71.50
40556;DHT22;26250;45.422;11.100;2023-06-14T10:29:07;25.30;72.40
40556;DHT22;26250;45.422;11.100;2023-06-14T10:31:41;25.30;71.00
40556;DHT22;26250;45.422;11.100;2023-06-14T10:34:09;25.40;71.80
40556;DHT22;26250;45.422;11.100;2023-06-14T10:36:37;25.40;71.50
40556;DHT22;26250;45.422;11.100;2023-06-14T10:39:07;25.30;69.80
40556;DHT22;26250;45.422;11.100;2023-06-14T10:41:37;25.30;69.30
40556;DHT22;26250;45.422;11.100;2023-06-14T10:46:47;25.40;71.20
40556;DHT22;26250;45.422;11.100;2023-06-14T10:49:19;25.60;70.00
40556;DHT22;26250;45.422;11.100;2023-06-14T10:51:49;25.60;69.70
40556;DHT22;26250;45.422;11.100;2023-06-14T10:54:17;25.50;68.90
40556;DHT22;26250;45.422;11.100;2023-06-14T10:56:48;25.50;68.50
40556;DHT22;26250;45.422;11.100;2023-06-14T10:59:16;25.40;69.00
40556;DHT22;26250;45.422;11.100;2023-06-14T11:05:04;25.50;69.10
40556;DHT22;26250;45.422;11.100;2023-06-14T11:12:59;25.70;68.30
40556;DHT22;26250;45.422;11.100;2023-06-14T11:15:30;25.70;67.00
40556;DHT22;26250;45.422;11.100;2023-06-14T11:18:00;25.70;68.00
40556;DHT22;26250;45.422;11.100;2023-06-14T11:20:32;25.60;68.00
40556;DHT22;26250;45.422;11.100;2023-06-14T11:23:00;25.60;68.10
40556;DHT22;26250;45.422;11.100;2023-06-14T11:25:27;25.70;68.70
40556;DHT22;26250;45.422;11.100;2023-06-14T11:27:57;25.80;68.20
40556;DHT22;26250;45.422;11.100;2023-06-14T11:30:25;25.70;67.10
40556;DHT22;26250;45.422;11.100;2023-06-14T11:32:53;25.80;67.20
40556;DHT22;26250;45.422;11.100;2023-06-14T11:35:26;25.70;68.30
40556;DHT22;26250;45.422;11.100;2023-06-14T11:37:54;25.70;68.50
40556;DHT22;26250;45.422;11.100;2023-06-14T11:40:26;25.70;68.10
40556;DHT22;26250;45.422;11.100;2023-06-14T11:42:58;25.80;65.30
40556;DHT22;26250;45.422;11.100;2023-06-14T11:45:25;25.80;65.30
40556;DHT22;26250;45.422;11.100;2023-06-14T11:47:55;25.70;66.80
40556;DHT22;26250;45.422;11.100;2023-06-14T11:50:27;25.70;66.70
40556;DHT22;26250;45.422;11.100;2023-06-14T11:52:58;25.80;66.30
40556;DHT22;26250;45.422;11.100;2023-06-14T11:55:40;25.90;66.80
40556;DHT22;26250;45.422;11.100;2023-06-14T11:58:08;25.90;65.00
40556;DHT22;26250;45.422;11.100;2023-06-14T12:00:37;25.90;64.20
40556;DHT22;26250;45.422;11.100;2023-06-14T12:03:04;25.90;65.10
40556;DHT22;26250;45.422;11.100;2023-06-14T12:05:33;26.00;64.80
40556;DHT22;26250;45.422;11.100;2023-06-14T12:08:02;26.10;64.60
40556;DHT22;26250;45.422;11.100;2023-06-14T12:10:39;26.20;65.40
40556;DHT22;26250;45.422;11.100;2023-06-14T12:13:07;26.20;65.30
40556;DHT22;26250;45.422;11.100;2023-06-14T12:15:34;26.20;65.60
40556;DHT22;26250;45.422;11.100;2023-06-14T12:18:05;26.30;65.80
40556;DHT22;26250;45.422;11.100;2023-06-14T12:20:34;26.30;66.20
40556;DHT22;26250;45.422;11.100;2023-06-14T12:23:03;26.50;66.10
40556;DHT22;26250;45.422;11.100;2023-06-14T12:25:33;26.50;66.90
40556;DHT22;26250;45.422;11.100;2023-06-14T12:28:07;26.50;66.40
40556;DHT22;26250;45.422;11.100;2023-06-14T12:30:36;26.50;67.10
40556;DHT22;26250;45.422;11.100;2023-06-14T12:33:03;26.60;65.10
40556;DHT22;26250;45.422;11.100;2023-06-14T12:35:31;26.60;64.40
40556;DHT22;26250;45.422;11.100;2023-06-14T12:37:58;26.60;63.30
40556;DHT22;26250;45.422;11.100;2023-06-14T12:40:27;26.70;63.30
40556;DHT22;26250;45.422;11.100;2023-06-14T12:42:54;26.70;63.30
40556;DHT22;26250;45.422;11.100;2023-06-14T12:45:21;26.70;62.80
40556;DHT22;26250;45.422;11.100;2023-06-14T12:47:50;26.70;62.50
40556;DHT22;26250;45.422;11.100;2023-06-14T12:50:18;26.80;62.60
40556;DHT22;26250;45.422;11.100;2023-06-14T12:52:47;26.90;60.70
40556;DHT22;26250;45.422;11.100;2023-06-14T12:55:15;26.70;61.80
40556;DHT22;26250;45.422;11.100;2023-06-14T12:57:42;26.70;61.80
40556;DHT22;26250;45.422;11.100;2023-06-14T13:00:09;26.60;61.60
40556;DHT22;26250;45.422;11.100;2023-06-14T13:02:37;26.60;61.30
40556;DHT22;26250;45.422;11.100;2023-06-14T13:05:05;26.60;63.20
40556;DHT22;26250;45.422;11.100;2023-06-14T13:07:32;26.70;62.50
40556;DHT22;26250;45.422;11.100;2023-06-14T13:10:02;26.80;61.90
40556;DHT22;26250;45.422;11.100;2023-06-14T13:12:29;26.80;61.70
40556;DHT22;26250;45.422;11.100;2023-06-14T13:14:56;26.90;61.60
40556;DHT22;26250;45.422;11.100;2023-06-14T13:17:23;27.00;58.80
40556;DHT22;26250;45.422;11.100;2023-06-14T13:19:50;27.00;58.60
40556;DHT22;26250;45.422;11.100;2023-06-14T13:22:17;27.00;59.20
40556;DHT22;26250;45.422;11.100;2023-06-14T13:24:44;26.90;59.90
40556;DHT22;26250;45.422;11.100;2023-06-14T13:27:12;27.00;60.40
40556;DHT22;26250;45.422;11.100;2023-06-14T13:29:41;27.10;60.30
40556;DHT22;26250;45.422;11.100;2023-06-14T13:32:08;27.20;60.30
40556;DHT22;26250;45.422;11.100;2023-06-14T13:34:35;27.30;60.20
40556;DHT22;26250;45.422;11.100;2023-06-14T13:37:02;27.30;59.40
40556;DHT22;26250;45.422;11.100;2023-06-14T13:39:30;27.30;58.60
40556;DHT22;26250;45.422;11.100;2023-06-14T13:41:57;27.20;59.80
40556;DHT22;26250;45.422;11.100;2023-06-14T13:44:24;27.20;60.10
40556;DHT22;26250;45.422;11.100;2023-06-14T13:46:51;27.20;60.00
40556;DHT22;26250;45.422;11.100;2023-06-14T13:49:21;27.20;59.40
40556;DHT22;26250;45.422;11.100;2023-06-14T13:51:48;27.30;59.00
40556;DHT22;26250;45.422;11.100;2023-06-14T13:54:20;27.40;58.20
40556;DHT22;26250;45.422;11.100;2023-06-14T13:56:47;27.40;59.40
40556;DHT22;26250;45.422;11.100;2023-06-14T13:59:15;27.40;61.60
40556;DHT22;26250;45.422;11.100;2023-06-14T14:01:42;27.40;60.40
40556;DHT22;26250;45.422;11.100;2023-06-14T14:04:09;27.40;59.60
40556;DHT22;26250;45.422;11.100;2023-06-14T14:06:37;27.50;59.60
40556;DHT22;26250;45.422;11.100;2023-06-14T14:09:04;27.50;59.90
40556;DHT22;26250;45.422;11.100;2023-06-14T14:11:31;27.50;59.30
40556;DHT22;26250;45.422;11.100;2023-06-14T14:14:00;27.30;58.70
40556;DHT22;26250;45.422;11.100;2023-06-14T14:16:27;27.30;57.50
40556;DHT22;26250;45.422;11.100;2023-06-14T14:18:54;27.40;57.90
40556;DHT22;26250;45.422;11.100;2023-06-14T14:21:21;27.50;58.20
40556;DHT22;26250;45.422;11.100;2023-06-14T14:23:48;27.60;58.80
40556;DHT22;26250;45.422;11.100;2023-06-14T14:26:16;27.70;59.50
40556;DHT22;26250;45.422;11.100;2023-06-14T14:28:43;27.60;59.10
40556;DHT22;26250;45.422;11.100;2023-06-14T14:31:10;27.50;59.10
40556;DHT22;26250;45.422;11.100;2023-06-14T14:33:37;27.50;57.50
40556;DHT22;26250;45.422;11.100;2023-06-14T14:36:04;27.50;57.40
40556;DHT22;26250;45.422;11.100;2023-06-14T14:38:32;27.50;58.10
40556;DHT22;26250;45.422;11.100;2023-06-14T14:40:59;27.50;55.00
40556;DHT22;26250;45.422;11.100;2023-06-14T14:43:27;27.50;52.50
40556;DHT22;26250;45.422;11.100;2023-06-14T14:45:57;27.40;53.60
40556;DHT22;26250;45.422;11.100;2023-06-14T14:48:24;27.40;56.10
40556;DHT22;26250;45.422;11.100;2023-06-14T14:50:52;27.50;58.30
40556;DHT22;26250;45.422;11.100;2023-06-14T14:53:18;27.50;60.00
40556;DHT22;26250;45.422;11.100;2023-06-14T14:55:46;27.50;62.40
40556;DHT22;26250;45.422;11.100;2023-06-14T14:58:13;27.40;59.20
40556;DHT22;26250;45.422;11.100;2023-06-14T15:00:46;27.60;60.40
40556;DHT22;26250;45.422;11.100;2023-06-14T15:03:14;27.70;59.80
40556;DHT22;26250;45.422;11.100;2023-06-14T15:05:41;27.70;59.70
40556;DHT22;26250;45.422;11.100;2023-06-14T15:08:08;27.70;59.60
40556;DHT22;26250;45.422;11.100;2023-06-14T15:10:39;27.70;59.10
40556;DHT22;26250;45.422;11.100;2023-06-14T15:13:08;27.80;59.70
40556;DHT22;26250;45.422;11.100;2023-06-14T15:15:36;27.80;59.60
40556;DHT22;26250;45.422;11.100;2023-06-14T15:18:03;27.60;59.60
40556;DHT22;26250;45.422;11.100;2023-06-14T15:20:31;27.70;59.50
40556;DHT22;26250;45.422;11.100;2023-06-14T15:22:58;27.60;59.10
40556;DHT22;26250;45.422;11.100;2023-06-14T15:25:28;27.60;58.30
40556;DHT22;26250;45.422;11.100;2023-06-14T15:27:56;27.50;58.60
40556;DHT22;26250;45.422;11.100;2023-06-14T15:30:23;27.50;58.80
40556;DHT22;26250;45.422;11.100;2023-06-14T15:32:50;27.40;59.10
40556;DHT22;26250;45.422;11.100;2023-06-14T15:35:18;27.40;59.50
40556;DHT22;26250;45.422;11.100;2023-06-14T15:37:47;27.50;60.30
40556;DHT22;26250;45.422;11.100;2023-06-14T15:40:15;27.70;60.30
40556;DHT22;26250;45.422;11.100;2023-06-14T15:42:42;27.80;60.60
40556;DHT22;26250;45.422;11.100;2023-06-14T15:45:09;27.70;59.90
40556;DHT22;26250;45.422;11.100;2023-06-14T15:47:37;27.70;60.20
40556;DHT22;26250;45.422;11.100;2023-06-14T15:50:05;27.80;60.60
40556;DHT22;26250;45.422;11.100;2023-06-14T15:52:34;27.80;60.40
40556;DHT22;26250;45.422;11.100;2023-06-14T15:55:02;27.70;60.40
40556;DHT22;26250;45.422;11.100;2023-06-14T15:57:30;27.70;61.40
40556;DHT22;26250;45.422;11.100;2023-06-14T15:59:57;27.60;61.70
40556;DHT22;26250;45.422;11.100;2023-06-14T16:02:27;27.70;61.60
40556;DHT22;26250;45.422;11.100;2023-06-14T16:04:54;27.90;61.40
40556;DHT22;26250;45.422;11.100;2023-06-14T16:07:21;28.00;61.90
40556;DHT22;26250;45.422;11.100;2023-06-14T16:09:48;28.10;60.50
40556;DHT22;26250;45.422;11.100;2023-06-14T16:12:16;28.10;60.80
40556;DHT22;26250;45.422;11.100;2023-06-14T16:14:42;28.00;62.10
40556;DHT22;26250;45.422;11.100;2023-06-14T16:17:09;28.00;61.60
40556;DHT22;26250;45.422;11.100;2023-06-14T16:19:36;27.90;62.60
40556;DHT22;26250;45.422;11.100;2023-06-14T16:22:06;27.90;63.00
40556;DHT22;26250;45.422;11.100;2023-06-14T16:24:34;27.90;62.30
40556;DHT22;26250;45.422;11.100;2023-06-14T16:27:01;28.00;63.40
40556;DHT22;26250;45.422;11.100;2023-06-14T16:29:28;27.90;62.20
40556;DHT22;26250;45.422;11.100;2023-06-14T16:31:55;27.80;62.10
40556;DHT22;26250;45.422;11.100;2023-06-14T16:34:22;27.80;62.60
40556;DHT22;26250;45.422;11.100;2023-06-14T16:36:49;27.80;62.40
40556;DHT22;26250;45.422;11.100;2023-06-14T16:39:16;27.70;62.10
40556;DHT22;26250;45.422;11.100;2023-06-14T16:41:43;27.70;62.90
40556;DHT22;26250;45.422;11.100;2023-06-14T16:44:10;27.70;62.90
40556;DHT22;26250;45.422;11.100;2023-06-14T16:46:37;27.70;62.50
40556;DHT22;26250;45.422;11.100;2023-06-14T16:49:04;27.70;62.70
40556;DHT22;26250;45.422;11.100;2023-06-14T16:51:32;27.70;62.80
40556;DHT22;26250;45.422;11.100;2023-06-14T16:53:59;27.70;62.70
40556;DHT22;26250;45.422;11.100;2023-06-14T16:56:27;27.70;62.40
40556;DHT22;26250;45.422;11.100;2023-06-14T16:58:55;27.60;62.60
40556;DHT22;26250;45.422;11.100;2023-06-14T17:01:23;27.60;62.70
40556;DHT22;26250;45.422;11.100;2023-06-14T17:03:50;27.60;62.60
40556;DHT22;26250;45.422;11.100;2023-06-14T17:06:18;27.50;62.60
40556;DHT22;26250;45.422;11.100;2023-06-14T17:08:48;27.50;62.80
40556;DHT22;26250;45.422;11.100;2023-06-14T17:11:18;27.50;62.10
40556;DHT22;26250;45.422;11.100;2023-06-14T17:13:45;27.50;62.90
40556;DHT22;26250;45.422;11.100;2023-06-14T17:16:12;27.50;62.70
40556;DHT22;26250;45.422;11.100;2023-06-14T17:18:39;27.50;62.70
40556;DHT22;26250;45.422;11.100;2023-06-14T17:21:07;27.50;62.70
40556;DHT22;26250;45.422;11.100;2023-06-14T17:23:34;27.50;62.80
40556;DHT22;26250;45.422;11.100;2023-06-14T17:26:01;27.50;62.50
40556;DHT22;26250;45.422;11.100;2023-06-14T17:28:28;27.50;62.90
40556;DHT22;26250;45.422;11.100;2023-06-14T17:30:55;27.40;63.20
40556;DHT22;26250;45.422;11.100;2023-06-14T17:33:22;27.50;63.80
40556;DHT22;26250;45.422;11.100;2023-06-14T17:35:50;27.40;63.50
40556;DHT22;26250;45.422;11.100;2023-06-14T17:38:17;27.40;63.30
40556;DHT22;26250;45.422;11.100;2023-06-14T17:40:44;27.40;63.40
40556;DHT22;26250;45.422;11.100;2023-06-14T17:43:17;27.30;63.80
40556;DHT22;26250;45.422;11.100;2023-06-14T17:45:44;27.30;63.90
40556;DHT22;26250;45.422;11.100;2023-06-14T17:48:11;27.20;64.00
40556;DHT22;26250;45.422;11.100;2023-06-14T17:50:38;27.20;64.20
40556;DHT22;26250;45.422;11.100;2023-06-14T17:53:07;27.10;64.30
40556;DHT22;26250;45.422;11.100;2023-06-14T17:55:34;27.00;63.80
40556;DHT22;26250;45.422;11.100;2023-06-14T17:58:05;27.00;64.00
40556;DHT22;26250;45.422;11.100;2023-06-14T18:00:31;27.00;63.80
40556;DHT22;26250;45.422;11.100;2023-06-14T18:02:59;27.00;63.70
40556;DHT22;26250;45.422;11.100;2023-06-14T18:05:27;27.00;63.70
40556;DHT22;26250;45.422;11.100;2023-06-14T18:07:54;27.00;63.60
40556;DHT22;26250;45.422;11.100;2023-06-14T18:10:22;27.00;63.60
40556;DHT22;26250;45.422;11.100;2023-06-14T18:12:49;27.00;63.40
40556;DHT22;26250;45.422;11.100;2023-06-14T18:15:16;27.00;63.60
40556;DHT22;26250;45.422;11.100;2023-06-14T18:17:43;27.10;63.50
40556;DHT22;26250;45.422;11.100;2023-06-14T18:20:10;27.00;63.40
40556;DHT22;26250;45.422;11.100;2023-06-14T18:22:37;27.00;63.30
40556;DHT22;26250;45.422;11.100;2023-06-14T18:25:05;26.90;63.60
40556;DHT22;26250;45.422;11.100;2023-06-14T18:27:35;26.80;63.60
40556;DHT22;26250;45.422;11.100;2023-06-14T18:30:03;26.70;63.70
40556;DHT22;26250;45.422;11.100;2023-06-14T18:32:30;26.60;64.10
40556;DHT22;26250;45.422;11.100;2023-06-14T18:34:58;26.60;64.20
40556;DHT22;26250;45.422;11.100;2023-06-14T18:37:25;26.50;64.30
40556;DHT22;26250;45.422;11.100;2023-06-14T18:39:53;26.50;64.40
40556;DHT22;26250;45.422;11.100;2023-06-14T18:42:20;26.50;64.30
40556;DHT22;26250;45.422;11.100;2023-06-14T18:44:49;26.40;64.30
40556;DHT22;26250;45.422;11.100;2023-06-14T18:47:16;26.40;64.50
40556;DHT22;26250;45.422;11.100;2023-06-14T18:49:43;26.30;64.80
40556;DHT22;26250;45.422;11.100;2023-06-14T18:52:10;26.30;64.50
40556;DHT22;26250;45.422;11.100;2023-06-14T18:54:39;26.20;64.80
40556;DHT22;26250;45.422;11.100;2023-06-14T18:57:06;26.20;65.20
40556;DHT22;26250;45.422;11.100;2023-06-14T18:59:33;26.20;65.50
40556;DHT22;26250;45.422;11.100;2023-06-14T19:02:00;26.20;65.70
40556;DHT22;26250;45.422;11.100;2023-06-14T19:04:27;26.10;69.50
40556;DHT22;26250;45.422;11.100;2023-06-14T19:06:57;26.00;70.50
40556;DHT22;26250;45.422;11.100;2023-06-14T19:09:24;25.70;71.70
40556;DHT22;26250;45.422;11.100;2023-06-14T19:11:52;25.50;71.80
40556;DHT22;26250;45.422;11.100;2023-06-14T19:14:19;25.50;72.50
40556;DHT22;26250;45.422;11.100;2023-06-14T19:16:46;25.40;72.50
40556;DHT22;26250;45.422;11.100;2023-06-14T19:19:14;25.30;72.40
40556;DHT22;26250;45.422;11.100;2023-06-14T19:21:44;25.30;72.60
40556;DHT22;26250;45.422;11.100;2023-06-14T19:24:11;25.30;72.10
40556;DHT22;26250;45.422;11.100;2023-06-14T19:26:42;25.40;72.10
40556;DHT22;26250;45.422;11.100;2023-06-14T19:29:09;25.30;73.00
40556;DHT22;26250;45.422;11.100;2023-06-14T19:31:36;25.10;73.70
40556;DHT22;26250;45.422;11.100;2023-06-14T19:34:03;25.10;74.10
40556;DHT22;26250;45.422;11.100;2023-06-14T19:36:31;25.00;73.70
40556;DHT22;26250;45.422;11.100;2023-06-14T19:38:58;25.10;74.10
40556;DHT22;26250;45.422;11.100;2023-06-14T19:41:25;25.10;73.60
40556;DHT22;26250;45.422;11.100;2023-06-14T19:43:54;25.10;73.50
40556;DHT22;26250;45.422;11.100;2023-06-14T19:46:23;25.10;73.30
40556;DHT22;26250;45.422;11.100;2023-06-14T19:48:52;25.10;74.00
40556;DHT22;26250;45.422;11.100;2023-06-14T19:51:19;24.90;74.30
